Latest Coastal Weather Observations for Port Macquarie Airport

IDN60701

Issued at 8:01 am EST Saturday 23 May 2015 (issued every 10 minutes, with the page automatically refreshed every 10 minutes)

About coastal observations | Map of coastal stations | Coastal observations for NSW | Marine services | Other Formats
Station Details ID: 060139 Name: PORT MACQUARIE AIRPORT AWS Lat: -31.43 Lon: 152.87 Height: 4.2 m
Data from the previous 72 hours. | See also: Recent months at Port Macquarie Airport
Date/Time
EST
Temp

°C
Wind Pressure Rain
since 9am
mm
Weather Cloud Vis
km
Sea
Height
m
Swell
Dir
 
Speed
knots
Gust
knots
hPa Trend Height
m
Period
s
Dir
23/08:00am 13.7 SW 7 9 1025.5 - 26.0 - Partly cloudy 10 - - - -
23/07:30am 13.3 SW 8 13 1025.2 - 26.0 - Partly cloudy 10 - - - -
23/07:00am 12.9 WSW 7 9 1024.8 - 26.0 - Partly cloudy 10 - - - -
23/06:30am 12.8 WSW 7 11 1024.4 - 26.0 - Partly cloudy 10 - - - -
23/06:00am 12.7 WSW 7 9 1024.5 - 26.0 Recent precip. Mostly cloudy 10 - - - -
23/05:30am 12.5 WSW 7 8 1023.9 - 26.0 - Partly cloudy 10 - - - -
23/05:00am 12.6 SW 5 7 1023.9 - 25.8 - Partly cloudy 10 - - - -
23/04:30am 12.6 WSW 7 11 1023.3 - 25.6 - Partly cloudy 10 - - - -
23/04:00am 12.6 WSW 8 10 1023.1 - 25.6 - Partly cloudy 10 - - - -
23/03:30am 12.8 WSW 9 11 1023.0 - 25.6 - Partly cloudy 10 - - - -
23/03:00am 12.8 WSW 10 15 1022.8 - 25.4 Recent precip. Cloudy 10 - - - -
23/02:50am 12.9 WSW 11 15 1023.0 - 25.4 - Partly cloudy 10 - - - -
23/02:33am 13.0 WSW 11 15 1023.1 - 25.2 - Partly cloudy 5 - - - -
23/02:30am 13.0 WSW 11 15 1023.2 - 24.8 - Partly cloudy 10 - - - -
23/02:00am 13.0 WSW 12 16 1023.0 - 24.0 - Partly cloudy 10 - - - -
23/01:30am 13.0 WSW 10 16 1022.9 - 23.2 - Partly cloudy 10 - - - -
23/01:00am 13.1 W 10 16 1022.6 - 23.0 - Partly cloudy 10 - - - -
23/12:30am 13.4 W 10 17 1022.8 - 22.6 - Partly cloudy 10 - - - -
23/12:00am 13.5 WSW 11 19 1022.4 - 22.6 - Cloudy 10 - - - -
 
Date/Time
EST
Temp

°C
Wind Pressure Rain
since 9am
mm
Weather Cloud Vis
km
Sea
Height
m
Swell
Dir
 
Speed
knots
Gust
knots
hPa Trend Height
m
Period
s
Dir
22/11:30pm 14.0 WSW 13 17 1022.5 - 22.6 - Partly cloudy 10 - - - -
22/11:00pm 13.7 SSW 16 26 1022.2 - 22.6 - Partly cloudy 10 - - - -
22/10:54pm 13.8 SSW 18 26 1022.1 - 22.4 - Partly cloudy 10 - - - -
22/10:30pm 13.7 WSW 12 16 1021.6 - 22.2 - Partly cloudy 10 - - - -
22/10:00pm 14.1 WSW 13 18 1021.4 - 22.0 - Partly cloudy 10 - - - -
22/09:30pm 14.2 SW 15 24 1021.0 - 22.0 - Partly cloudy 10 - - - -
22/09:00pm 14.2 WSW 14 19 1020.6 - 22.0 Recent precip. Mostly cloudy 10 - - - -
22/08:30pm 14.3 WSW 15 20 1020.2 - 22.0 - Partly cloudy 10 - - - -
22/08:01pm 14.4 WSW 12 16 1019.9 - 21.8 - Partly cloudy 9 - - - -
22/08:00pm 14.4 WSW 12 16 1019.9 - 21.8 - Partly cloudy 9 - - - -
22/07:50pm 14.4 SW 15 21 1019.7 - 21.4 - Partly cloudy 5 - - - -
22/07:30pm 14.6 SW 15 21 1019.4 - 20.2 - Partly cloudy 6 - - - -
22/07:04pm 14.8 SW 16 27 1018.6 - 19.2 - Partly cloudy 10 - - - -
22/07:00pm 14.8 SW 16 25 1018.5 - 19.2 - Partly cloudy 10 - - - -
22/06:50pm 14.8 SW 17 24 1018.4 - 19.2 - Partly cloudy 6 - - - -
22/06:30pm 15.0 SW 17 27 1018.0 - 17.0 - Partly cloudy 5 - - - -
22/06:27pm 15.0 SW 19 28 1017.8 - 16.6 - Partly cloudy 5 - - - -
22/06:26pm 15.0 SW 19 28 1017.7 - 16.6 - Partly cloudy 5 - - - -
22/06:18pm 14.9 SW 18 28 1017.4 - 16.0 - Partly cloudy 4 - - - -
22/06:00pm 14.7 SW 12 22 1017.6 - 12.2 Rain Cloudy 2 - - - -
22/05:59pm 14.7 SW 12 22 1017.6 - 11.2 - Partly cloudy 2 - - - -
22/05:58pm 14.6 SW 12 17 1017.6 - 10.2 - Partly cloudy 3 - - - -
22/05:37pm 14.5 WSW 14 21 1016.8 - 3.8 - Partly cloudy 5 - - - -
22/05:30pm 14.4 WSW 13 21 1016.5 - 2.8 - Partly cloudy 7 - - - -
22/05:00pm 14.5 WSW 14 20 1015.6 - 1.2 - Partly cloudy 10 - - - -
22/04:30pm 14.7 WSW 11 15 1015.2 - 1.0 - Partly cloudy 10 - - - -
22/04:00pm 15.0 WSW 14 20 1014.7 - 0.8 - Partly cloudy 10 - - - -
22/03:44pm 15.5 SW 17 27 1014.5 - 0.0 - Partly cloudy 10 - - - -
22/03:43pm 15.6 SW 17 27 1014.5 - 0.0 - Partly cloudy 10 - - - -
22/03:30pm 16.2 SW 20 27 1014.2 - 0.0 - Partly cloudy 10 - - - -
22/03:01pm 17.0 WSW 16 28 1013.7 - 0.0 - Partly cloudy 10 - - - -
22/03:00pm 17.3 WSW 15 22 1013.7 - 0.0 - Partly cloudy 10 - - - -
22/02:32pm 17.6 WSW 16 26 1013.3 - 0.0 - Cloudy 10 - - - -
22/02:30pm 17.4 WSW 15 24 1013.3 - 0.0 - Cloudy 10 - - - -
22/02:00pm 17.0 WSW 14 21 1013.1 - 0.0 - Partly cloudy 10 - - - -
22/01:30pm 17.4 WSW 14 20 1013.0 - 0.0 - Partly cloudy 10 - - - -
22/01:00pm 18.0 WSW 17 25 1012.9 - 0.0 - Partly cloudy 10 - - - -
22/12:52pm 18.4 WSW 15 25 1012.9 - 0.0 - Partly cloudy 10 - - - -
22/12:30pm 17.5 WSW 10 14 1013.1 - 0.0 - Partly cloudy 10 - - - -
22/12:00pm 17.7 WSW 13 19 1013.4 - 0.0 - Cloudy 10 - - - -
22/11:30am 18.1 WSW 10 13 1013.9 - 0.0 - Partly cloudy 10 - - - -
22/11:00am 17.9 W 11 16 1014.0 - 0.0 - Partly cloudy 10 - - - -
22/10:30am 16.4 W 7 9 1014.1 - 0.0 - - 10 - - - -
22/10:00am 16.3 W 8 13 1014.5 - 0.0 - Partly cloudy 10 - - - -
22/09:30am 15.7 W 8 13 1014.6 - 0.0 - Partly cloudy 10 - - - -
22/09:00am 15.2 WSW 6 7 1014.6 - 7.0 - Mostly cloudy 10 - - - -
22/08:30am 14.6 W 7 10 1014.5 - 7.0 - Partly cloudy 10 - - - -
22/08:00am 14.4 W 6 9 1014.5 - 7.0 - Cloudy 10 - - - -
22/07:30am 14.0 SW 6 8 1014.4 - 7.0 - Cloudy 10 - - - -
22/07:00am 13.5 W 4 5 1014.2 - 7.0 - Partly cloudy 10 - - - -
22/06:30am 13.5 W 5 7 1014.1 - 7.0 - Partly cloudy 10 - - - -
22/06:00am 13.5 WSW 3 5 1013.5 - 7.0 - Mostly cloudy 10 - - - -
22/05:30am 14.0 W 5 7 1013.6 - 7.0 - Cloudy 10 - - - -
22/05:00am 14.1 W 5 8 1013.7 - 7.0 - Partly cloudy 10 - - - -
22/04:30am 14.3 W 5 7 1013.6 - 7.0 - Cloudy 10 - - - -
22/04:00am 14.4 CALM 0 0 1013.8 - 7.0 - Partly cloudy 10 - - - -
22/03:30am 14.7 WSW 4 6 1013.9 - 7.0 - Partly cloudy 10 - - - -
22/03:00am 14.8 W 5 7 1013.8 - 7.0 Recent precip. Cloudy 10 - - - -
22/02:30am 14.9 W 7 9 1014.2 - 7.0 - Partly cloudy 10 - - - -
22/02:00am 15.0 WNW 7 9 1014.6 - 6.8 - Partly cloudy 10 - - - -
22/01:30am 15.1 WNW 6 7 1014.8 - 6.8 - Partly cloudy 10 - - - -
22/01:00am 15.1 NW 6 8 1014.9 - 6.8 - Partly cloudy 10 - - - -
22/12:30am 15.4 WSW 8 10 1015.0 - 6.4 - Partly cloudy 10 - - - -
22/12:00am 15.4 WNW 9 12 1015.5 - 4.6 Rain Cloudy 10 - - - -
 
Date/Time
EST
Temp

°C
Wind Pressure Rain
since 9am
mm
Weather Cloud Vis
km
Sea
Height
m
Swell
Dir
 
Speed
knots
Gust
knots
hPa Trend Height
m
Period
s
Dir
21/11:30pm 15.4 WNW 8 11 1015.6 - 4.2 - Partly cloudy 10 - - - -
21/11:00pm 15.1 NW 5 7 1015.8 - 4.2 - Cloudy 10 - - - -
21/10:30pm 15.2 WNW 4 6 1015.9 - 4.2 - Cloudy 10 - - - -
21/10:00pm 15.5 W 5 7 1016.1 - 4.2 - Cloudy 10 - - - -
21/09:30pm 15.5 WNW 5 7 1016.4 - 4.2 - Partly cloudy 10 - - - -
21/09:00pm 15.5 W 7 9 1016.5 - 4.0 - Cloudy 10 - - - -
21/08:30pm 15.3 WNW 4 5 1016.8 - 4.0 - Partly cloudy 10 - - - -
21/08:00pm 15.4 WNW 5 6 1016.6 - 4.0 - Partly cloudy 10 - - - -
21/07:30pm 15.1 WNW 6 7 1016.7 - 4.0 - - 10 - - - -
21/07:00pm 14.9 CALM 0 0 1016.6 - 4.0 - Partly cloudy 10 - - - -
21/06:30pm 15.5 CALM 0 0 1016.7 - 4.0 - Cloudy 10 - - - -
21/06:00pm 15.9 N 3 4 1017.1 - 4.0 - Cloudy 10 - - - -
21/05:30pm 15.5 NNW 2 5 1016.8 - 4.0 - - 10 - - - -
21/05:00pm 16.3 CALM 0 2 1015.7 - 4.0 - Partly cloudy 10 - - - -
21/04:30pm 16.9 ESE 1 4 1015.5 - 4.0 - Partly cloudy 10 - - - -
21/04:00pm 17.2 NW 1 5 1017.3 - 4.0 - Cloudy 10 - - - -
21/03:30pm 17.4 CALM 0 0 1016.6 - 4.0 - Partly cloudy 10 - - - -
21/03:00pm 17.2 CALM 0 0 1016.2 - 4.0 - Cloudy 10 - - - -
21/02:30pm 17.2 CALM 0 3 1016.4 - 4.0 - Partly cloudy 10 - - - -
21/02:00pm 17.2 WNW 3 4 1016.7 - 4.0 - Partly cloudy 10 - - - -
21/01:30pm 16.9 WNW 5 6 1016.6 - 4.0 - Partly cloudy 10 - - - -
21/01:00pm 16.4 NNW 5 7 1016.7 - 4.0 - Cloudy 10 - - - -
21/12:30pm 16.3 NNW 4 6 1017.1 - 4.0 - Partly cloudy 10 - - - -
21/12:00pm 15.9 NW 6 7 1017.8 - 4.0 Recent precip. Cloudy 10 - - - -
21/11:30am 15.6 WNW 2 5 1018.1 - 4.0 - Partly cloudy 10 - - - -
21/11:00am 15.1 W 3 6 1018.9 - 3.8 - Partly cloudy 10 - - - -
21/10:30am 15.1 W 4 5 1019.0 - 3.0 - Partly cloudy 10 - - - -
21/10:00am 15.2 NW 3 4 1019.5 - 1.8 - Partly cloudy 10 - - - -
21/09:30am 15.1 WNW 5 7 1020.3 - 1.2 - Partly cloudy 10 - - - -
21/09:00am 15.3 CALM 0 4 1019.5 - 7.2 Recent precip. Cloudy 10 - - - -
21/08:43am 15.2 CALM 0 0 1019.2 - 7.0 - Partly cloudy 9 - - - -
21/08:30am 15.0 CALM 0 0 1019.3 - 6.4 - Partly cloudy 5 - - - -
21/08:27am 15.0 CALM 0 2 1019.4 - 6.2 - Partly cloudy 5 - - - -
21/08:00am 15.0 WNW 5 6 1020.0 - 5.0 - Partly cloudy 9 - - - -
21/07:30am 15.1 NW 6 7 1019.4 - 2.8 - Partly cloudy 10 - - - -
21/07:00am 15.2 NW 3 4 1018.9 - 1.8 - Partly cloudy 10 - - - -
21/06:30am 15.2 CALM 0 0 1018.4 - 1.6 - Partly cloudy 10 - - - -
21/06:00am 15.5 CALM 0 0 1018.1 - 0.8 Recent precip. Cloudy 10 - - - -
21/05:30am 15.5 W 4 7 1017.8 - 0.4 - Partly cloudy 10 - - - -
21/05:00am 15.4 NNW 1 3 1017.0 - 0.2 - Partly cloudy 10 - - - -
21/04:30am 16.0 CALM 0 0 1016.3 - 0.2 - Partly cloudy 10 - - - -
21/04:00am 16.3 W 3 4 1016.9 - 0.2 - Partly cloudy 10 - - - -
21/03:30am 16.6 W 7 9 1017.0 - 0.0 - Partly cloudy 10 - - - -
21/03:00am 16.5 W 3 5 1017.2 - 0.0 - Cloudy 10 - - - -
21/02:30am 16.8 W 7 9 1017.7 - 0.0 - Partly cloudy 10 - - - -
21/02:00am 17.5 W 8 11 1018.0 - 0.0 - Partly cloudy 10 - - - -
21/01:30am 17.5 W 6 7 1018.0 - 0.0 - Partly cloudy 10 - - - -
21/01:00am 16.4 WSW 4 6 1018.0 - 0.0 - Partly cloudy 10 - - - -
21/12:30am 17.2 SW 4 5 1018.0 - 0.0 - - 10 - - - -
21/12:00am 17.9 W 5 6 1018.2 - 0.0 - Cloudy 10 - - - -
 
Date/Time
EST
Temp

°C
Wind Pressure Rain
since 9am
mm
Weather Cloud Vis
km
Sea
Height
m
Swell
Dir
 
Speed
knots
Gust
knots
hPa Trend Height
m
Period
s
Dir
20/11:30pm 17.8 WSW 3 4 1018.1 - 0.0 - Partly cloudy 10 - - - -
20/11:00pm 17.9 W 5 6 1017.8 - 0.0 - Partly cloudy 10 - - - -
20/10:30pm 17.9 SW 5 6 1017.5 - 0.0 - Partly cloudy 10 - - - -
20/10:00pm 18.0 SW 6 7 1017.3 - 0.0 - Partly cloudy 10 - - - -
20/09:30pm 16.6 S 4 6 1017.1 - 0.0 - - 10 - - - -
20/09:00pm 16.8 WSW 2 5 1016.9 - 0.0 - Cloudy 10 - - - -
20/08:30pm 16.9 CALM 0 0 1016.6 - 0.0 - Partly cloudy 10 - - - -
20/08:00pm 16.9 CALM 0 0 1016.2 - 0.0 - - 10 - - - -
20/07:30pm 17.4 CALM 0 3 1016.3 - 0.0 - - 10 - - - -
20/07:00pm 18.5 NE 4 5 1016.1 - 0.0 - - 10 - - - -
20/06:30pm 17.5 CALM 0 3 1016.1 - 0.0 - - 10 - - - -
20/06:00pm 19.3 NNE 3 4 1015.6 - 0.0 - Mostly clear 10 - - - -
20/05:30pm 20.5 NNE 4 7 1015.7 - 0.0 - - 10 - - - -
20/05:00pm 21.5 NE 7 10 1015.5 - 0.0 - - 10 - - - -
20/04:30pm 21.9 ENE 7 10 1015.0 - 0.0 - - 10 - - - -
20/04:00pm 22.8 NE 6 8 1015.5 - 0.0 - - 10 - - - -
20/03:30pm 23.3 ENE 7 9 1015.4 - 0.0 - - 10 - - - -
20/03:00pm 23.7 E 6 8 1015.1 - 0.0 - - 10 - - - -
20/02:30pm 24.2 SE 6 8 1015.2 - 0.0 - - 10 - - - -
20/02:00pm 24.3 SE 7 10 1015.1 - 0.0 - - 10 - - - -
20/01:30pm 25.7 SSW 7 13 1015.5 - 0.0 - - 10 - - - -
20/01:00pm 25.5 SW 6 8 1015.8 - 0.0 - - 10 - - - -
20/12:30pm 25.4 NNE 4 5 1016.1 - 0.0 - - 10 - - - -
20/12:00pm 25.0 NNW 4 6 1016.3 - 0.0 - - 10 - - - -
20/11:30am 24.4 NW 4 8 1016.5 - 0.0 - - 10 - - - -
20/11:00am 23.0 N 5 7 1016.8 - 0.0 - - 10 - - - -
20/10:30am 21.0 N 5 8 1017.3 - 0.0 - - 10 - - - -
20/10:00am 20.0 NNW 4 6 1017.8 - 0.0 - - 10 - - - -
20/09:30am 18.4 NNW 3 5 1018.0 - 0.0 - - 10 - - - -
20/09:00am 16.3 W 3 5 1018.1 - 0.2 - - 10 - - - -
20/08:30am 14.7 WNW 1 4 1018.1 - 0.2 - - 10 - - - -

Other Formats:

Comma delimited format used in spreadsheet applications
http://www.bom.gov.au/fwo/IDN60701/IDN60701.94786.axf

JavaScript Object Notation format (JSON) in row-major order
http://www.bom.gov.au/fwo/IDN60701/IDN60701.94786.json